Time;durP1;ratioP1;P1;durP2;ratioP2;P2;SDS_P1;SDS_P2;PMS_P1;PMS_P2;Temp;Humidity;BMP_temperature;BMP_pressure;BME280_temperature;BME280_humidity;BME280_pressure;Samples;Min_cycle;Max_cycle;Signal;HPM_P1;HPM_P2
2023/04/25 00:02:12;;;;;;;3.65;2.17;;;;;;;;;;5054925;28;20013;-63
2023/04/25 00:04:38;;;;;;;8.50;2.50;;;;;;;;;;5054499;28;20025;-63
2023/04/25 00:07:05;;;;;;;7.38;2.28;;;;;;;;;;5054586;28;20029;-63
2023/04/25 00:09:32;;;;;;;4.57;2.10;;;;;;;;;;5054468;28;20025;-63
2023/04/25 00:11:58;;;;;;;4.68;2.38;;;;;;;;;;5054316;28;20020;-63
2023/04/25 00:14:25;;;;;;;4.82;2.17;;;;;;;;;;5054549;28;20024;-63
2023/04/25 00:16:51;;;;;;;5.63;2.60;;;;;;;;;;5054560;28;20094;-63
2023/04/25 00:19:17;;;;;;;5.05;2.45;;;;;;;;;;5054226;28;20490;-63
2023/04/25 00:21:46;;;;;;;5.00;2.38;;;;;;;;;;5053960;28;20035;-64
2023/04/25 00:24:12;;;;;;;6.80;2.42;;;;;;;;;;5054566;28;20039;-63
2023/04/25 00:26:39;;;;;;;6.38;3.60;;;;;;;;;;5054079;28;20028;-63
2023/04/25 00:29:05;;;;;;;5.63;3.42;;;;;;;;;;5054014;28;20036;-63
2023/04/25 00:31:31;;;;;;;9.50;3.33;;;;;;;;;;5054041;28;20036;-63
2023/04/25 00:33:58;;;;;;;13.05;6.90;;;;;;;;;;5054310;28;20028;-63
2023/04/25 00:36:24;;;;;;;7.75;5.07;;;;;;;;;;5053864;28;20498;-63
2023/04/25 00:38:50;;;;;;;7.75;4.38;;;;;;;;;;5052561;28;20037;-63
2023/04/25 00:41:17;;;;;;;3.97;2.38;;;;;;;;;;5053959;28;20024;-63
2023/04/25 00:43:44;;;;;;;7.25;2.53;;;;;;;;;;5053957;28;20017;-63
2023/04/25 00:46:11;;;;;;;6.22;2.90;;;;;;;;;;5053962;28;20055;-63
2023/04/25 00:48:37;;;;;;;3.78;2.40;;;;;;;;;;5052281;28;20025;-63
2023/04/25 00:51:03;;;;;;;7.22;3.30;;;;;;;;;;5053740;28;20037;-63
2023/04/25 00:53:31;;;;;;;10.85;6.18;;;;;;;;;;5053595;28;20028;-63
2023/04/25 00:55:58;;;;;;;9.98;5.38;;;;;;;;;;5053489;28;20041;-63
2023/04/25 00:58:24;;;;;;;6.00;3.42;;;;;;;;;;5053412;28;20035;-63
2023/04/25 01:00:55;;;;;;;6.22;3.10;;;;;;;;;;5052596;28;20052;-63
2023/04/25 01:03:22;;;;;;;16.55;8.13;;;;;;;;;;5053382;28;20481;-63
2023/04/25 01:05:49;;;;;;;5.03;3.30;;;;;;;;;;5053161;28;20076;-63
2023/04/25 01:08:15;;;;;;;11.77;5.97;;;;;;;;;;5053651;28;20024;-63
2023/04/25 01:10:41;;;;;;;9.07;4.18;;;;;;;;;;5053197;28;20028;-63
2023/04/25 01:13:08;;;;;;;6.38;2.72;;;;;;;;;;5053253;28;20393;-63
2023/04/25 01:15:35;;;;;;;4.75;2.33;;;;;;;;;;5053238;28;20017;-63
2023/04/25 01:18:02;;;;;;;4.57;2.45;;;;;;;;;;5053105;28;20025;-63
2023/04/25 01:20:29;;;;;;;6.00;2.40;;;;;;;;;;5052805;28;20515;-63
2023/04/25 01:22:55;;;;;;;7.28;4.50;;;;;;;;;;5053010;28;20481;-63
2023/04/25 01:25:23;;;;;;;7.97;3.97;;;;;;;;;;5053295;28;20074;-63
2023/04/25 01:27:49;;;;;;;4.35;2.95;;;;;;;;;;5052937;28;20428;-63
2023/04/25 01:30:15;;;;;;;6.15;3.83;;;;;;;;;;5052755;28;20142;-63
2023/04/25 01:32:42;;;;;;;3.63;2.97;;;;;;;;;;5052672;28;20035;-63
2023/04/25 01:35:10;;;;;;;6.40;3.08;;;;;;;;;;5052604;28;20031;-63
2023/04/25 01:37:40;;;;;;;6.93;4.07;;;;;;;;;;5052882;28;20043;-63
2023/04/25 01:40:07;;;;;;;7.63;3.28;;;;;;;;;;5052749;28;20051;-61
2023/04/25 01:42:35;;;;;;;4.35;2.90;;;;;;;;;;5052698;28;20021;-62
2023/04/25 01:45:02;;;;;;;4.97;2.90;;;;;;;;;;5051666;28;20027;-62
2023/04/25 01:47:28;;;;;;;7.75;5.13;;;;;;;;;;5052599;28;20025;-63
2023/04/25 01:49:55;;;;;;;4.45;2.90;;;;;;;;;;5052174;28;20405;-63
2023/04/25 01:52:21;;;;;;;6.70;2.83;;;;;;;;;;5052557;28;20019;-63
2023/04/25 01:54:48;;;;;;;9.15;3.42;;;;;;;;;;5052475;28;20423;-63
2023/04/25 01:57:15;;;;;;;5.22;2.80;;;;;;;;;;5052349;28;20390;-63
2023/04/25 01:59:41;;;;;;;5.95;2.60;;;;;;;;;;5051193;28;20490;-63
2023/04/25 02:02:07;;;;;;;2.95;2.40;;;;;;;;;;5052317;28;20482;-63
2023/04/25 02:04:33;;;;;;;9.35;2.90;;;;;;;;;;5052332;28;20078;-63
2023/04/25 02:07:00;;;;;;;4.80;2.70;;;;;;;;;;5052283;28;20025;-63
2023/04/25 02:09:26;;;;;;;3.83;2.53;;;;;;;;;;5052405;28;20028;-63
2023/04/25 02:11:53;;;;;;;5.32;2.95;;;;;;;;;;5051984;28;20017;-63
2023/04/25 02:14:19;;;;;;;6.40;2.70;;;;;;;;;;5052191;28;20021;-63
2023/04/25 02:16:46;;;;;;;4.35;2.78;;;;;;;;;;5052310;28;20016;-63
2023/04/25 02:19:12;;;;;;;4.72;3.00;;;;;;;;;;5051968;28;20029;-63
2023/04/25 02:21:38;;;;;;;5.35;2.83;;;;;;;;;;5052242;28;20017;-63
2023/04/25 02:24:05;;;;;;;5.28;3.00;;;;;;;;;;5052029;28;20032;-63
2023/04/25 02:26:31;;;;;;;6.72;3.60;;;;;;;;;;5052037;28;20025;-63
2023/04/25 02:28:58;;;;;;;7.43;3.33;;;;;;;;;;5051888;28;20041;-63
2023/04/25 02:31:24;;;;;;;7.60;3.65;;;;;;;;;;5051808;28;20381;-63
2023/04/25 02:33:51;;;;;;;5.45;3.28;;;;;;;;;;5051972;28;20025;-63
2023/04/25 02:36:17;;;;;;;4.70;3.35;;;;;;;;;;5052177;28;20028;-63
2023/04/25 02:38:43;;;;;;;4.30;3.20;;;;;;;;;;5052081;28;20032;-63
2023/04/25 02:41:10;;;;;;;5.53;3.22;;;;;;;;;;5052027;28;20033;-63
2023/04/25 02:43:36;;;;;;;7.32;3.35;;;;;;;;;;5052034;28;20075;-63
2023/04/25 02:46:04;;;;;;;9.00;3.42;;;;;;;;;;5051829;28;20025;-63
2023/04/25 02:48:30;;;;;;;5.43;3.38;;;;;;;;;;5051791;28;20033;-63
2023/04/25 02:50:56;;;;;;;5.47;3.35;;;;;;;;;;5051802;28;20029;-63
2023/04/25 02:53:23;;;;;;;6.75;3.70;;;;;;;;;;5051970;28;20024;-63
2023/04/25 02:55:49;;;;;;;5.45;3.55;;;;;;;;;;5052058;28;20028;-63
2023/04/25 02:58:15;;;;;;;12.43;5.40;;;;;;;;;;5051655;28;20055;-63
2023/04/25 03:00:42;;;;;;;5.38;3.70;;;;;;;;;;5051371;28;20494;-63
2023/04/25 03:03:08;;;;;;;5.97;3.58;;;;;;;;;;5051704;28;20025;-63
2023/04/25 03:05:35;;;;;;;8.88;3.58;;;;;;;;;;5051886;28;20025;-63
2023/04/25 03:08:01;;;;;;;7.07;3.38;;;;;;;;;;5051755;28;20385;-63
2023/04/25 03:10:27;;;;;;;5.78;3.17;;;;;;;;;;5051624;28;20025;-63
2023/04/25 03:12:54;;;;;;;7.05;3.65;;;;;;;;;;5051657;28;20512;-63
2023/04/25 03:15:20;;;;;;;7.57;3.60;;;;;;;;;;5051493;28;20031;-63
2023/04/25 03:17:46;;;;;;;6.38;3.47;;;;;;;;;;5051554;28;20017;-63
2023/04/25 03:20:12;;;;;;;8.85;3.35;;;;;;;;;;5051764;28;20035;-63
2023/04/25 03:22:39;;;;;;;5.53;3.45;;;;;;;;;;5051594;28;20613;-63
2023/04/25 03:25:05;;;;;;;5.45;3.55;;;;;;;;;;5055586;28;20025;-63
2023/04/25 03:27:32;;;;;;;5.28;3.70;;;;;;;;;;5055229;28;20447;-63
2023/04/25 03:29:58;;;;;;;5.82;3.17;;;;;;;;;;5055228;28;20059;-63
2023/04/25 03:32:25;;;;;;;6.68;3.60;;;;;;;;;;5054915;28;20025;-63
2023/04/25 03:34:51;;;;;;;6.25;4.18;;;;;;;;;;5055279;28;20043;-63
2023/04/25 03:37:17;;;;;;;7.75;3.70;;;;;;;;;;5055004;28;20021;-63
2023/04/25 03:39:44;;;;;;;5.75;3.85;;;;;;;;;;5054942;28;20504;-63
2023/04/25 03:42:10;;;;;;;5.20;3.40;;;;;;;;;;5055232;28;20041;-63
2023/04/25 03:44:36;;;;;;;6.68;3.22;;;;;;;;;;5055024;28;20017;-63
2023/04/25 03:47:03;;;;;;;4.43;2.78;;;;;;;;;;5054741;28;20032;-63
2023/04/25 03:49:29;;;;;;;5.57;3.45;;;;;;;;;;5055011;28;20375;-63
2023/04/25 03:51:55;;;;;;;3.72;2.72;;;;;;;;;;5055109;28;20023;-63
2023/04/25 03:54:21;;;;;;;3.95;2.40;;;;;;;;;;5054718;28;20025;-63
2023/04/25 03:56:48;;;;;;;4.95;3.00;;;;;;;;;;5054679;28;20025;-63
2023/04/25 03:59:14;;;;;;;3.88;3.35;;;;;;;;;;5054228;28;20434;-63
2023/04/25 04:01:41;;;;;;;5.85;2.80;;;;;;;;;;5054447;28;20031;-63
2023/04/25 04:04:07;;;;;;;3.28;2.97;;;;;;;;;;5054909;28;20101;-63
2023/04/25 04:06:33;;;;;;;3.88;2.45;;;;;;;;;;5054620;28;20500;-64
2023/04/25 04:09:00;;;;;;;4.50;2.75;;;;;;;;;;5054894;28;20021;-64
2023/04/25 04:11:26;;;;;;;4.82;3.00;;;;;;;;;;5054751;28;20039;-64
2023/04/25 04:13:52;;;;;;;4.70;3.20;;;;;;;;;;5054252;28;20470;-64
2023/04/25 04:16:19;;;;;;;4.80;3.35;;;;;;;;;;5054987;28;20025;-64
2023/04/25 04:18:46;;;;;;;4.38;3.50;;;;;;;;;;5054048;28;20500;-64
2023/04/25 04:21:12;;;;;;;5.38;3.20;;;;;;;;;;5054487;28;20033;-65
2023/04/25 04:23:38;;;;;;;4.47;2.90;;;;;;;;;;5054373;28;20017;-64
2023/04/25 04:26:05;;;;;;;4.55;2.80;;;;;;;;;;5053992;28;20036;-64
2023/04/25 04:28:31;;;;;;;3.63;3.00;;;;;;;;;;5054181;28;20022;-65
2023/04/25 04:30:57;;;;;;;7.43;3.58;;;;;;;;;;5054147;28;20051;-64
2023/04/25 04:33:24;;;;;;;5.82;2.83;;;;;;;;;;5054164;28;20021;-64
2023/04/25 04:35:52;;;;;;;4.88;3.30;;;;;;;;;;5053580;28;20024;-65
2023/04/25 04:38:18;;;;;;;4.43;3.00;;;;;;;;;;5053010;28;20032;-64
2023/04/25 04:40:44;;;;;;;7.68;3.40;;;;;;;;;;5053787;28;20045;-65
2023/04/25 04:43:11;;;;;;;4.80;3.33;;;;;;;;;;5053489;28;20363;-64
2023/04/25 04:45:40;;;;;;;4.88;3.40;;;;;;;;;;5053796;28;20025;-64
2023/04/25 04:48:06;;;;;;;6.65;3.15;;;;;;;;;;5053983;28;20062;-65
2023/04/25 04:50:33;;;;;;;6.47;3.35;;;;;;;;;;5053591;28;20033;-64
2023/04/25 04:53:00;;;;;;;7.55;3.55;;;;;;;;;;5053682;28;20017;-65
2023/04/25 04:55:26;;;;;;;5.78;3.90;;;;;;;;;;5053836;28;20032;-65
2023/04/25 04:57:53;;;;;;;5.00;3.33;;;;;;;;;;5053492;28;20029;-64
2023/04/25 05:00:20;;;;;;;7.13;3.72;;;;;;;;;;5053431;28;20037;-64
2023/04/25 05:02:46;;;;;;;6.68;3.53;;;;;;;;;;5053454;28;20029;-65
2023/04/25 05:05:13;;;;;;;5.57;3.60;;;;;;;;;;5053338;28;20052;-65
2023/04/25 05:07:39;;;;;;;3.92;2.70;;;;;;;;;;5053703;28;20025;-64
2023/04/25 05:10:06;;;;;;;3.90;2.80;;;;;;;;;;5053340;28;20025;-65
2023/04/25 05:12:32;;;;;;;4.75;2.97;;;;;;;;;;5053162;28;20500;-65
2023/04/25 05:14:58;;;;;;;5.80;2.95;;;;;;;;;;5053445;28;20028;-64
2023/04/25 05:17:25;;;;;;;4.57;2.90;;;;;;;;;;5053260;28;20025;-64
2023/04/25 05:19:51;;;;;;;4.22;2.72;;;;;;;;;;5052942;28;20037;-64
2023/04/25 05:22:17;;;;;;;4.38;2.85;;;;;;;;;;5053039;28;20363;-64
2023/04/25 05:24:44;;;;;;;5.50;2.75;;;;;;;;;;5053058;28;20033;-64
2023/04/25 05:27:10;;;;;;;3.15;2.63;;;;;;;;;;5052518;28;20027;-64
2023/04/25 05:29:36;;;;;;;4.85;2.80;;;;;;;;;;5052953;28;20051;-64
2023/04/25 05:32:03;;;;;;;6.47;3.00;;;;;;;;;;5052777;28;20033;-64
2023/04/25 05:34:29;;;;;;;3.53;2.88;;;;;;;;;;5053204;28;20029;-64
2023/04/25 05:36:56;;;;;;;4.72;2.83;;;;;;;;;;5053091;28;20017;-64
2023/04/25 05:39:22;;;;;;;5.13;2.80;;;;;;;;;;5051523;28;20420;-64
2023/04/25 05:41:48;;;;;;;4.93;2.80;;;;;;;;;;5052778;28;20021;-64
2023/04/25 05:44:15;;;;;;;4.75;2.72;;;;;;;;;;5051672;28;20028;-64
2023/04/25 05:46:42;;;;;;;3.45;2.40;;;;;;;;;;5051972;28;20066;-64
2023/04/25 05:49:08;;;;;;;2.90;2.33;;;;;;;;;;5052614;28;20512;-64
2023/04/25 05:51:34;;;;;;;3.75;2.42;;;;;;;;;;5051738;28;20043;-64
2023/04/25 05:54:01;;;;;;;2.63;1.60;;;;;;;;;;5052533;28;20070;-64
2023/04/25 05:56:27;;;;;;;3.03;2.50;;;;;;;;;;5052412;28;20021;-64
2023/04/25 05:58:53;;;;;;;1.77;1.50;;;;;;;;;;5052120;28;20031;-64
2023/04/25 06:01:20;;;;;;;2.55;1.50;;;;;;;;;;5052310;28;20070;-64
2023/04/25 06:03:46;;;;;;;1.55;1.40;;;;;;;;;;5052386;28;20021;-64
2023/04/25 06:06:13;;;;;;;4.47;1.80;;;;;;;;;;5052275;28;20025;-64
2023/04/25 06:08:39;;;;;;;3.58;2.05;;;;;;;;;;5052356;28;20378;-64
2023/04/25 06:11:05;;;;;;;11.68;7.32;;;;;;;;;;5052140;28;20017;-64
2023/04/25 06:13:32;;;;;;;12.25;8.60;;;;;;;;;;5050917;28;20029;-63
2023/04/25 06:15:58;;;;;;;3.08;1.85;;;;;;;;;;5050986;28;20023;-64
2023/04/25 06:18:25;;;;;;;3.70;1.60;;;;;;;;;;5052280;28;20497;-64
2023/04/25 06:20:51;;;;;;;3.38;1.70;;;;;;;;;;5052008;28;20062;-64
2023/04/25 06:23:17;;;;;;;2.22;1.55;;;;;;;;;;5052352;28;20021;-64
2023/04/25 06:25:44;;;;;;;2.67;1.30;;;;;;;;;;5051810;28;20405;-64
2023/04/25 06:28:10;;;;;;;3.72;1.45;;;;;;;;;;5051948;28;20501;-64
2023/04/25 06:30:36;;;;;;;4.47;1.88;;;;;;;;;;5051561;28;20049;-64
2023/04/25 06:33:03;;;;;;;3.80;1.77;;;;;;;;;;5050699;28;20485;-64
2023/04/25 06:35:29;;;;;;;2.55;1.20;;;;;;;;;;5052156;28;20028;-64
2023/04/25 06:37:55;;;;;;;2.28;1.70;;;;;;;;;;5051880;28;20009;-64
2023/04/25 06:40:22;;;;;;;3.28;1.90;;;;;;;;;;5051704;28;20397;-64
2023/04/25 06:42:48;;;;;;;1.25;1.15;;;;;;;;;;5048667;28;20470;-64
2023/04/25 06:45:14;;;;;;;2.10;1.00;;;;;;;;;;5051256;28;20025;-64
2023/04/25 06:47:41;;;;;;;0.60;0.60;;;;;;;;;;5051647;28;20017;-62
2023/04/25 06:50:07;;;;;;;0.85;0.80;;;;;;;;;;5051307;28;20075;-64
2023/04/25 06:52:34;;;;;;;3.67;1.67;;;;;;;;;;5051152;28;20397;-64
2023/04/25 06:55:00;;;;;;;1.23;1.05;;;;;;;;;;5051343;28;20025;-64
2023/04/25 06:57:26;;;;;;;0.70;0.70;;;;;;;;;;5052695;28;20029;-64
2023/04/25 06:59:53;;;;;;;0.90;0.60;;;;;;;;;;5055226;28;20492;-63
2023/04/25 07:02:21;;;;;;;1.30;0.80;;;;;;;;;;5053285;28;20404;-63
2023/04/25 07:04:47;;;;;;;0.98;0.60;;;;;;;;;;5054563;28;20024;-64
2023/04/25 07:07:13;;;;;;;1.10;1.00;;;;;;;;;;5054163;28;20055;-64
2023/04/25 07:09:39;;;;;;;1.65;0.95;;;;;;;;;;5054943;28;20431;-64
2023/04/25 07:12:06;;;;;;;1.17;1.10;;;;;;;;;;5054275;28;20469;-63
2023/04/25 07:14:32;;;;;;;1.08;0.90;;;;;;;;;;5054643;28;20048;-64
2023/04/25 07:16:59;;;;;;;3.83;1.20;;;;;;;;;;5054754;28;20023;-64
2023/04/25 07:19:26;;;;;;;1.48;0.80;;;;;;;;;;5055012;28;20382;-64
2023/04/25 07:21:53;;;;;;;1.75;1.10;;;;;;;;;;5055020;28;20029;-64
2023/04/25 07:24:19;;;;;;;1.40;1.10;;;;;;;;;;5054191;28;20047;-64
2023/04/25 07:26:45;;;;;;;1.00;0.90;;;;;;;;;;5054405;28;20029;-64
2023/04/25 07:29:11;;;;;;;1.73;1.02;;;;;;;;;;5054694;28;20055;-64
2023/04/25 07:31:38;;;;;;;3.83;1.10;;;;;;;;;;5054613;28;20083;-64
2023/04/25 07:34:05;;;;;;;1.02;0.88;;;;;;;;;;5054460;28;20039;-64
2023/04/25 07:36:31;;;;;;;1.13;1.00;;;;;;;;;;5054566;28;20010;-64
2023/04/25 07:38:58;;;;;;;1.27;1.00;;;;;;;;;;5054461;28;20025;-64
2023/04/25 07:41:24;;;;;;;2.35;1.00;;;;;;;;;;5054375;28;20017;-64
2023/04/25 07:43:50;;;;;;;3.58;1.00;;;;;;;;;;5053213;28;20043;-64
2023/04/25 07:46:17;;;;;;;1.15;0.70;;;;;;;;;;5054693;28;20027;-64
2023/04/25 07:48:43;;;;;;;3.33;0.90;;;;;;;;;;5054455;28;20043;-64
2023/04/25 07:51:09;;;;;;;2.53;0.75;;;;;;;;;;5053727;28;20029;-65
2023/04/25 07:53:37;;;;;;;0.90;0.75;;;;;;;;;;5054523;28;20070;-64
2023/04/25 07:56:03;;;;;;;1.10;0.70;;;;;;;;;;5054163;28;20024;-64
2023/04/25 07:58:30;;;;;;;2.38;0.90;;;;;;;;;;5054187;28;20035;-64
2023/04/25 08:00:56;;;;;;;0.70;0.70;;;;;;;;;;5053928;28;20033;-64
2023/04/25 08:03:22;;;;;;;1.42;0.93;;;;;;;;;;5053627;28;20029;-64
2023/04/25 08:05:49;;;;;;;6.15;0.90;;;;;;;;;;5053448;28;20040;-65
2023/04/25 08:08:15;;;;;;;2.22;1.10;;;;;;;;;;5054069;28;20493;-64
2023/04/25 08:10:42;;;;;;;4.55;0.95;;;;;;;;;;5053476;28;20025;-64
2023/04/25 08:13:08;;;;;;;3.08;0.85;;;;;;;;;;5053926;28;20025;-64
2023/04/25 08:15:34;;;;;;;1.40;0.73;;;;;;;;;;5053874;28;20025;-64
2023/04/25 08:18:00;;;;;;;2.03;0.80;;;;;;;;;;5053040;28;20027;-64
2023/04/25 08:20:27;;;;;;;0.95;0.90;;;;;;;;;;5053461;28;20033;-64
2023/04/25 08:22:53;;;;;;;0.90;0.80;;;;;;;;;;5053584;28;20037;-64
2023/04/25 08:25:20;;;;;;;1.25;0.85;;;;;;;;;;5053645;28;20028;-64
2023/04/25 08:27:46;;;;;;;1.58;0.93;;;;;;;;;;5053910;28;20036;-64
2023/04/25 08:30:13;;;;;;;0.80;0.80;;;;;;;;;;5053310;28;20517;-64
2023/04/25 08:32:39;;;;;;;2.22;1.00;;;;;;;;;;5052176;28;20025;-64
2023/04/25 08:35:06;;;;;;;2.17;1.15;;;;;;;;;;5053288;28;20035;-64
2023/04/25 08:37:33;;;;;;;1.08;0.70;;;;;;;;;;5053362;28;20029;-64
2023/04/25 08:39:59;;;;;;;1.45;1.10;;;;;;;;;;5053152;28;20033;-64
2023/04/25 08:42:28;;;;;;;0.93;0.90;;;;;;;;;;5053825;28;20021;-64
2023/04/25 08:44:55;;;;;;;2.72;1.08;;;;;;;;;;5052360;28;20032;-65
2023/04/25 08:47:22;;;;;;;1.10;1.00;;;;;;;;;;5053114;28;20397;-64
2023/04/25 08:49:50;;;;;;;2.17;0.80;;;;;;;;;;5053023;28;20477;-64
2023/04/25 08:52:22;;;;;;;0.82;0.82;;;;;;;;;;5053391;28;20095;-64
2023/04/25 08:54:49;;;;;;;4.72;1.30;;;;;;;;;;5052993;28;20035;-65
2023/04/25 08:57:15;;;;;;;1.23;1.13;;;;;;;;;;5053315;28;20035;-64
2023/04/25 08:59:45;;;;;;;1.00;0.90;;;;;;;;;;5052892;28;20036;-64
2023/04/25 09:02:16;;;;;;;1.48;0.88;;;;;;;;;;5052870;28;20481;-65
2023/04/25 09:04:42;;;;;;;;;;;;;;;;;;5053117;28;20534;-65
2023/04/25 09:07:08;;;;;;;2.72;0.80;;;;;;;;;;5051859;28;19905;-64
2023/04/25 09:09:36;;;;;;;2.33;1.25;;;;;;;;;;5053153;28;20036;-64
2023/04/25 09:12:02;;;;;;;1.77;0.80;;;;;;;;;;5052508;28;20025;-63
2023/04/25 09:14:29;;;;;;;2.53;1.00;;;;;;;;;;5051549;28;20409;-65
2023/04/25 09:17:01;;;;;;;1.67;0.98;;;;;;;;;;5052638;28;20017;-64
2023/04/25 09:19:39;;;;;;;1.00;0.90;;;;;;;;;;5052629;28;20037;-63
2023/04/25 09:22:06;;;;;;;0.80;0.80;;;;;;;;;;5049567;28;20043;-63
2023/04/25 09:24:32;;;;;;;1.88;1.13;;;;;;;;;;5052537;28;20025;-64
2023/04/25 09:26:59;;;;;;;2.15;1.20;;;;;;;;;;5052619;28;20484;-64
2023/04/25 09:29:32;;;;;;;4.00;1.00;;;;;;;;;;5052320;28;20504;-64
2023/04/25 09:32:16;;;;;;;1.73;0.95;;;;;;;;;;5052509;28;20033;-64
2023/04/25 09:34:43;;;;;;;3.30;1.10;;;;;;;;;;5052040;28;20497;-64
2023/04/25 09:37:13;;;;;;;1.17;1.02;;;;;;;;;;5050980;28;20481;-64
2023/04/25 09:39:39;;;;;;;2.92;1.35;;;;;;;;;;5051563;28;20033;-64
2023/04/25 09:42:06;;;;;;;3.40;1.23;;;;;;;;;;5052145;28;20028;-64
2023/04/25 09:44:32;;;;;;;4.72;1.33;;;;;;;;;;5052044;28;20031;-73
2023/04/25 09:46:59;;;;;;;0.90;0.82;;;;;;;;;;5052362;28;20021;-70
2023/04/25 09:49:28;;;;;;;1.77;1.08;;;;;;;;;;5051804;28;20035;-70
2023/04/25 09:51:58;;;;;;;1.35;1.10;;;;;;;;;;5050927;28;20044;-69
2023/04/25 09:54:27;;;;;;;1.15;1.05;;;;;;;;;;5052214;28;20028;-69
2023/04/25 09:56:54;;;;;;;1.52;0.93;;;;;;;;;;5051959;28;20025;-68
2023/04/25 09:59:22;;;;;;;1.13;0.82;;;;;;;;;;5051890;28;20037;-69
2023/04/25 10:01:52;;;;;;;0.70;0.70;;;;;;;;;;5051513;28;20025;-69
2023/04/25 10:04:21;;;;;;;1.25;0.80;;;;;;;;;;5052083;28;20500;-69
2023/04/25 10:06:49;;;;;;;0.90;0.80;;;;;;;;;;5051898;28;20390;-69
2023/04/25 10:09:15;;;;;;;1.30;0.88;;;;;;;;;;5052292;28;20021;-69
2023/04/25 10:11:42;;;;;;;3.78;1.00;;;;;;;;;;5048882;28;20032;-70
2023/04/25 10:14:08;;;;;;;1.58;0.90;;;;;;;;;;5051657;28;20033;-68
2023/04/25 10:16:35;;;;;;;1.38;0.80;;;;;;;;;;5051192;28;20039;-70
2023/04/25 10:19:02;;;;;;;1.38;0.80;;;;;;;;;;5051641;28;20033;-69
2023/04/25 10:21:30;;;;;;;2.03;0.80;;;;;;;;;;5051281;28;20478;-69
2023/04/25 10:23:57;;;;;;;0.93;0.80;;;;;;;;;;5051404;28;20039;-69
2023/04/25 10:26:24;;;;;;;2.42;0.73;;;;;;;;;;5050765;28;20029;-69
2023/04/25 10:28:57;;;;;;;1.02;0.90;;;;;;;;;;5051429;28;20035;-69
2023/04/25 10:31:23;;;;;;;3.42;1.17;;;;;;;;;;5051300;28;20554;-69
2023/04/25 10:33:50;;;;;;;1.10;0.80;;;;;;;;;;5051271;28;20025;-67
2023/04/25 10:36:23;;;;;;;2.75;0.73;;;;;;;;;;5051611;28;20047;-69
2023/04/25 10:38:50;;;;;;;1.08;0.85;;;;;;;;;;5051715;28;20044;-69
2023/04/25 10:41:18;;;;;;;3.00;0.88;;;;;;;;;;5051381;28;20037;-69
2023/04/25 10:43:46;;;;;;;0.80;0.70;;;;;;;;;;5051640;28;20021;-69
2023/04/25 10:46:19;;;;;;;1.17;0.80;;;;;;;;;;5051396;28;20474;-69
2023/04/25 10:48:50;;;;;;;1.10;0.93;;;;;;;;;;5051461;28;20025;-69
2023/04/25 10:51:27;;;;;;;1.15;0.88;;;;;;;;;;5051750;28;20028;-69
2023/04/25 10:53:56;;;;;;;0.88;0.82;;;;;;;;;;5051361;28;20023;-69
2023/04/25 10:56:23;;;;;;;0.52;0.52;;;;;;;;;;5051493;28;20032;-69
2023/04/25 10:58:50;;;;;;;0.70;0.70;;;;;;;;;;5051305;28;20029;-68
2023/04/25 11:01:20;;;;;;;0.88;0.70;;;;;;;;;;5050813;28;20037;-69
2023/04/25 11:03:50;;;;;;;1.42;1.02;;;;;;;;;;5051505;28;20021;-67
2023/04/25 11:06:16;;;;;;;0.63;0.60;;;;;;;;;;5051380;28;20040;-68
2023/04/25 11:08:49;;;;;;;0.88;0.75;;;;;;;;;;5051327;28;20021;-67
2023/04/25 11:11:15;;;;;;;0.70;0.65;;;;;;;;;;5051161;28;20037;-67
2023/04/25 11:13:42;;;;;;;0.95;0.70;;;;;;;;;;5051767;28;20039;-68
2023/04/25 11:16:08;;;;;;;1.08;0.60;;;;;;;;;;5050849;28;20033;-68
2023/04/25 11:18:35;;;;;;;2.67;0.80;;;;;;;;;;5051105;28;20029;-68
2023/04/25 11:21:01;;;;;;;1.20;0.80;;;;;;;;;;5051197;28;20037;-67
2023/04/25 11:23:27;;;;;;;1.38;0.80;;;;;;;;;;5053893;28;20023;-67
2023/04/25 11:25:54;;;;;;;0.60;0.60;;;;;;;;;;5050597;28;20519;-68
2023/04/25 11:28:23;;;;;;;0.70;0.70;;;;;;;;;;5059216;28;20034;-68
2023/04/25 11:30:50;;;;;;;0.50;0.50;;;;;;;;;;5070358;28;20052;-68
2023/04/25 11:33:17;;;;;;;1.08;0.52;;;;;;;;;;5057591;28;20387;-68
2023/04/25 11:35:43;;;;;;;0.50;0.50;;;;;;;;;;5050318;28;20044;-68
2023/04/25 11:38:10;;;;;;;0.63;0.60;;;;;;;;;;5060328;28;20016;-69
2023/04/25 11:40:36;;;;;;;0.93;0.60;;;;;;;;;;5070554;28;20036;-69
2023/04/25 11:43:02;;;;;;;0.93;0.60;;;;;;;;;;5070506;28;20016;-68
2023/04/25 11:45:30;;;;;;;1.55;0.63;;;;;;;;;;5073328;28;20029;-69
2023/04/25 11:47:57;;;;;;;1.02;0.73;;;;;;;;;;5073999;28;20011;-70
2023/04/25 11:50:23;;;;;;;1.30;0.90;;;;;;;;;;5074142;28;20035;-69
2023/04/25 11:52:50;;;;;;;1.40;0.70;;;;;;;;;;5073857;28;20050;-69
2023/04/25 11:55:17;;;;;;;0.60;0.60;;;;;;;;;;5074239;28;20035;-69
2023/04/25 11:57:44;;;;;;;2.97;1.10;;;;;;;;;;5073708;28;20021;-69
2023/04/25 12:00:16;;;;;;;1.75;0.70;;;;;;;;;;5068462;28;20040;-70
2023/04/25 12:02:46;;;;;;;0.73;0.63;;;;;;;;;;5052923;28;20024;-70
2023/04/25 12:05:13;;;;;;;1.00;0.50;;;;;;;;;;5053721;28;20025;-69
2023/04/25 12:07:41;;;;;;;1.75;0.57;;;;;;;;;;5057736;28;20499;-69
2023/04/25 12:10:10;;;;;;;1.08;0.63;;;;;;;;;;5054087;28;20036;-69
2023/04/25 12:12:37;;;;;;;0.80;0.60;;;;;;;;;;5052184;28;20013;-69
2023/04/25 12:15:10;;;;;;;0.68;0.68;;;;;;;;;;5053063;28;20039;-69
2023/04/25 12:17:37;;;;;;;2.20;0.70;;;;;;;;;;5053493;28;20021;-69
2023/04/25 12:20:10;;;;;;;0.77;0.60;;;;;;;;;;5049559;28;20039;-69
2023/04/25 12:22:37;;;;;;;1.70;0.90;;;;;;;;;;5053080;28;20024;-69
2023/04/25 12:25:04;;;;;;;1.77;0.70;;;;;;;;;;5052120;28;20033;-69
2023/04/25 12:27:33;;;;;;;1.08;0.70;;;;;;;;;;5051956;28;20021;-70
2023/04/25 12:30:00;;;;;;;1.15;0.70;;;;;;;;;;5053243;28;20113;-69
2023/04/25 12:32:27;;;;;;;0.90;0.80;;;;;;;;;;5052756;28;20032;-69
2023/04/25 12:34:53;;;;;;;0.65;0.60;;;;;;;;;;5052509;28;20036;-69
2023/04/25 12:37:20;;;;;;;0.80;0.65;;;;;;;;;;5051347;28;20025;-70
2023/04/25 12:39:46;;;;;;;1.95;0.68;;;;;;;;;;5052910;28;20033;-69
2023/04/25 12:42:12;;;;;;;1.48;0.77;;;;;;;;;;5052498;28;20029;-69
2023/04/25 12:44:39;;;;;;;1.05;0.60;;;;;;;;;;5052797;28;20050;-69
2023/04/25 12:47:05;;;;;;;1.70;0.60;;;;;;;;;;5052497;28;20485;-69
2023/04/25 12:49:31;;;;;;;0.77;0.70;;;;;;;;;;5051995;28;20504;-69
2023/04/25 12:51:58;;;;;;;1.38;0.70;;;;;;;;;;5052353;28;20029;-69
2023/04/25 12:54:25;;;;;;;0.70;0.63;;;;;;;;;;5052651;28;20021;-68
2023/04/25 12:56:52;;;;;;;0.85;0.77;;;;;;;;;;5052108;28;20074;-69
2023/04/25 12:59:20;;;;;;;1.23;0.60;;;;;;;;;;5052731;28;20025;-69
2023/04/25 13:01:46;;;;;;;1.10;0.85;;;;;;;;;;5052605;28;20026;-68
2023/04/25 13:04:13;;;;;;;2.40;1.08;;;;;;;;;;5052579;28;20050;-69
2023/04/25 13:06:39;;;;;;;2.50;1.08;;;;;;;;;;5051571;28;20377;-69
2023/04/25 13:09:06;;;;;;;2.83;1.23;;;;;;;;;;5051555;28;20025;-69
2023/04/25 13:11:32;;;;;;;7.60;1.30;;;;;;;;;;5052276;28;20385;-69
2023/04/25 13:14:00;;;;;;;3.65;1.20;;;;;;;;;;5051087;28;20028;-69
2023/04/25 13:16:26;;;;;;;4.20;1.48;;;;;;;;;;5052506;28;20024;-69
2023/04/25 13:18:52;;;;;;;4.70;1.05;;;;;;;;;;5052062;28;20025;-69
2023/04/25 13:21:19;;;;;;;5.70;1.25;;;;;;;;;;5050673;28;20047;-67
2023/04/25 13:23:46;;;;;;;7.18;1.10;;;;;;;;;;5051430;28;20029;-67
2023/04/25 13:26:12;;;;;;;4.75;1.40;;;;;;;;;;5051517;28;20365;-67
2023/04/25 13:28:40;;;;;;;3.72;1.30;;;;;;;;;;5051218;28;20017;-67
2023/04/25 13:31:06;;;;;;;5.47;1.83;;;;;;;;;;5051707;28;20041;-67
2023/04/25 13:33:33;;;;;;;3.72;1.10;;;;;;;;;;5051420;28;20025;-67
2023/04/25 13:36:01;;;;;;;2.53;1.50;;;;;;;;;;5051333;28;20037;-67
2023/04/25 13:38:27;;;;;;;5.07;1.23;;;;;;;;;;5051719;28;20478;-66
2023/04/25 13:40:54;;;;;;;3.88;1.40;;;;;;;;;;5051329;28;20204;-67
2023/04/25 13:43:24;;;;;;;2.85;1.35;;;;;;;;;;5050967;28;20284;-67
2023/04/25 13:45:51;;;;;;;2.13;1.10;;;;;;;;;;5051414;28;20025;-67
2023/04/25 13:48:18;;;;;;;1.80;1.13;;;;;;;;;;5051903;28;20259;-67
2023/04/25 13:50:45;;;;;;;2.05;1.10;;;;;;;;;;5051702;28;20025;-67
2023/04/25 13:53:11;;;;;;;1.88;1.42;;;;;;;;;;5052239;28;20025;-67
2023/04/25 13:55:38;;;;;;;2.97;1.15;;;;;;;;;;5051768;28;20028;-67
2023/04/25 13:58:07;;;;;;;2.20;1.30;;;;;;;;;;5051771;28;20066;-67
2023/04/25 14:00:38;;;;;;;3.50;1.40;;;;;;;;;;5051637;28;20053;-66
2023/04/25 14:03:06;;;;;;;3.53;1.42;;;;;;;;;;5050721;28;20022;-66
2023/04/25 14:05:37;;;;;;;2.10;1.20;;;;;;;;;;5051418;28;20025;-67
2023/04/25 14:08:04;;;;;;;2.97;1.65;;;;;;;;;;5050090;28;20027;-67
2023/04/25 14:10:31;;;;;;;3.00;1.40;;;;;;;;;;5049944;28;20033;-66
2023/04/25 14:12:57;;;;;;;2.85;1.30;;;;;;;;;;5050760;28;20013;-67
2023/04/25 14:15:25;;;;;;;3.88;1.25;;;;;;;;;;5050755;28;20017;-67
2023/04/25 14:17:51;;;;;;;5.10;1.70;;;;;;;;;;5049921;28;20037;-66
2023/04/25 14:20:20;;;;;;;2.25;1.23;;;;;;;;;;5050040;28;20043;-67
2023/04/25 14:22:46;;;;;;;1.92;1.42;;;;;;;;;;5051157;28;20021;-67
2023/04/25 14:25:12;;;;;;;4.40;1.63;;;;;;;;;;5051429;28;20130;-67
2023/04/25 14:27:39;;;;;;;3.17;1.40;;;;;;;;;;5051520;28;20025;-67
2023/04/25 14:30:06;;;;;;;5.82;1.70;;;;;;;;;;5050906;28;20533;-67
2023/04/25 14:32:32;;;;;;;7.53;2.35;;;;;;;;;;5051307;28;20021;-67
2023/04/25 14:34:58;;;;;;;6.03;1.80;;;;;;;;;;5051521;28;20020;-66
2023/04/25 14:37:25;;;;;;;4.25;1.90;;;;;;;;;;5051052;28;20481;-66
2023/04/25 14:39:51;;;;;;;3.58;1.58;;;;;;;;;;5051105;28;20489;-66
2023/04/25 14:42:17;;;;;;;3.45;1.70;;;;;;;;;;5051834;28;20021;-67